Time;durP1;ratioP1;P1;durP2;ratioP2;P2;SDS_P1;SDS_P2;PMS_P1;PMS_P2;Temp;Humidity;BMP_temperature;BMP_pressure;BME280_temperature;BME280_humidity;BME280_pressure;Samples;Min_cycle;Max_cycle;Signal;HPM_P1;HPM_P2
2023/07/16 00:01:39;;;;;;;3.60;2.30;;;;;;;23.79;100.00;96097.16;5059170;28;20201;-67
2023/07/16 00:04:06;;;;;;;5.32;2.83;;;;;;;23.55;100.00;96112.06;5059538;28;20197;-67
2023/07/16 00:06:32;;;;;;;4.13;2.70;;;;;;;23.75;100.00;96147.19;5058553;28;20201;-67
2023/07/16 00:09:00;;;;;;;7.53;2.65;;;;;;;23.95;100.00;96140.03;5057896;28;20228;-66
2023/07/16 00:11:27;;;;;;;12.57;3.05;;;;;;;23.50;100.00;96104.75;5059021;28;20208;-66
2023/07/16 00:13:53;;;;;;;9.98;3.28;;;;;;;23.54;100.00;96091.63;5058485;28;20219;-67
2023/07/16 00:16:20;;;;;;;9.95;3.88;;;;;;;23.48;100.00;96092.63;5056954;28;20200;-66
2023/07/16 00:18:46;;;;;;;10.82;3.05;;;;;;;23.81;100.00;96085.03;5057038;28;20311;-66
2023/07/16 00:21:13;;;;;;;4.32;2.58;;;;;;;23.51;100.00;96101.00;5057772;28;20578;-67
2023/07/16 00:23:39;;;;;;;6.20;2.97;;;;;;;23.63;100.00;96103.50;5057153;28;20211;-67
2023/07/16 00:26:07;;;;;;;3.60;2.58;;;;;;;23.94;100.00;96101.53;5056641;28;20197;-67
2023/07/16 00:31:25;;;;;;;3.70;2.42;;;;;;;24.22;100.00;96119.13;5094705;27;20554;-67
2023/07/16 00:33:52;;;;;;;5.78;2.70;;;;;;;23.95;100.00;96131.94;5093736;28;20203;-67
2023/07/16 00:36:18;;;;;;;7.53;2.83;;;;;;;24.04;100.00;96119.59;5094633;28;20200;-67
2023/07/16 00:38:45;;;;;;;4.30;2.70;;;;;;;24.00;100.00;96131.97;5093272;28;20219;-67
2023/07/16 00:41:13;;;;;;;6.75;3.10;;;;;;;23.92;100.00;96134.34;5094126;28;20215;-67
2023/07/16 00:43:39;;;;;;;4.20;2.83;;;;;;;23.85;100.00;96139.97;5092596;28;20202;-67
2023/07/16 00:46:06;;;;;;;5.28;3.05;;;;;;;24.05;100.00;96132.00;5093174;28;20202;-67
2023/07/16 00:48:34;;;;;;;7.75;3.33;;;;;;;24.40;100.00;96132.97;5092421;28;20210;-67
2023/07/16 00:51:02;;;;;;;5.10;2.75;;;;;;;24.31;100.00;96133.72;5093749;28;20199;-67
2023/07/16 00:53:29;;;;;;;6.25;2.90;;;;;;;24.25;100.00;96134.75;5093217;28;20214;-67
2023/07/16 00:55:56;;;;;;;5.90;3.45;;;;;;;24.16;100.00;96149.81;5091847;28;20554;-67
2023/07/16 00:58:22;;;;;;;3.75;2.33;;;;;;;24.25;100.00;96162.53;5091257;28;20207;-67
2023/07/16 01:00:49;;;;;;;9.00;3.40;;;;;;;24.10;100.00;96161.66;5091481;28;20229;-67
2023/07/16 01:03:16;;;;;;;4.75;2.88;;;;;;;23.85;100.00;96158.00;5092136;28;20195;-67
2023/07/16 01:05:56;;;;;;;6.03;2.60;;;;;;;24.35;100.00;96165.25;5091969;28;20742;-67
2023/07/16 01:08:31;;;;;;;6.65;2.97;;;;;;;24.35;100.00;96167.13;5092067;28;20792;-67
2023/07/16 01:10:58;;;;;;;3.35;2.20;;;;;;;23.91;100.00;96182.00;5093493;28;20210;-67
2023/07/16 01:13:26;;;;;;;5.63;2.92;;;;;;;23.90;100.00;96182.25;5093366;28;21009;-67
2023/07/16 01:15:52;;;;;;;5.35;3.00;;;;;;;23.77;100.00;96186.22;5093557;28;20694;-67
2023/07/16 01:18:19;;;;;;;4.45;2.22;;;;;;;23.67;100.00;96196.88;5093257;28;20203;-67
2023/07/16 01:20:47;;;;;;;4.53;2.85;;;;;;;23.30;100.00;96213.28;5093495;28;20219;-67
2023/07/16 01:23:27;;;;;;;5.72;2.40;;;;;;;23.43;100.00;96217.16;5093354;28;20218;-67
2023/07/16 01:26:06;;;;;;;2.75;1.83;;;;;;;23.21;100.00;96230.94;5093347;28;20210;-67
2023/07/16 01:28:58;;;;;;;1.65;1.02;;;;;;;23.21;100.00;96217.50;5093023;28;20210;-67
2023/07/16 01:31:27;;;;;;;1.98;1.00;;;;;;;23.26;100.00;96220.25;5092724;28;20664;-67
2023/07/16 01:33:55;;;;;;;1.80;0.90;;;;;;;23.07;100.00;96237.81;5092985;28;20199;-67
2023/07/16 01:36:22;;;;;;;5.25;1.50;;;;;;;23.04;100.00;96232.91;5092941;28;20211;-67
2023/07/16 01:38:49;;;;;;;1.55;1.10;;;;;;;22.72;100.00;96235.53;5092170;28;20246;-67
2023/07/16 01:41:15;;;;;;;1.83;1.20;;;;;;;22.71;100.00;96216.97;5088015;28;20250;-67
2023/07/16 01:43:42;;;;;;;1.17;0.85;;;;;;;22.59;100.00;96194.78;5079146;28;20702;-67
2023/07/16 01:46:08;;;;;;;1.48;0.98;;;;;;;22.86;100.00;96204.50;5079164;28;20208;-67
2023/07/16 01:48:38;;;;;;;1.13;0.80;;;;;;;22.95;100.00;96211.03;5078818;28;20215;-67
2023/07/16 01:51:05;;;;;;;2.00;0.90;;;;;;;22.40;100.00;96216.84;5079327;28;20723;-67
2023/07/16 01:53:32;;;;;;;2.15;0.68;;;;;;;22.45;100.00;96227.66;5079069;28;20215;-67
2023/07/16 01:55:59;;;;;;;0.80;0.60;;;;;;;22.21;100.00;96221.72;5078976;28;20207;-67
2023/07/16 01:58:25;;;;;;;1.30;0.70;;;;;;;22.68;100.00;96218.28;5078312;28;20664;-67
2023/07/16 02:00:52;;;;;;;0.90;0.65;;;;;;;22.23;100.00;96216.88;5079165;28;20224;-67
2023/07/16 02:03:18;;;;;;;1.38;0.75;;;;;;;22.39;100.00;96224.13;5079022;28;20203;-67
2023/07/16 02:05:46;;;;;;;2.47;1.00;;;;;;;22.77;100.00;96215.94;5078958;28;21045;-67
2023/07/16 02:08:13;;;;;;;0.60;0.50;;;;;;;22.56;100.00;96213.31;5078291;28;20909;-67
2023/07/16 02:10:39;;;;;;;1.30;0.50;;;;;;;22.54;100.00;96220.78;5078633;28;20231;-67
2023/07/16 02:13:06;;;;;;;0.80;0.63;;;;;;;22.57;100.00;96221.09;5078746;28;21158;-67
2023/07/16 02:15:32;;;;;;;0.80;0.50;;;;;;;22.77;100.00;96213.25;5079324;28;20203;-66
2023/07/16 02:17:59;;;;;;;1.35;0.73;;;;;;;22.97;100.00;96210.78;5077752;28;20565;-67
2023/07/16 02:20:25;;;;;;;0.32;0.30;;;;;;;23.06;100.00;96203.91;5078454;28;20224;-67
2023/07/16 02:22:53;;;;;;;1.58;0.80;;;;;;;23.34;100.00;96186.44;5079400;28;20214;-67
2023/07/16 02:25:20;;;;;;;0.90;0.57;;;;;;;22.94;100.00;96195.19;5077670;28;20296;-67
2023/07/16 02:27:46;;;;;;;1.00;0.65;;;;;;;22.99;100.00;96189.88;5077334;28;20200;-67
2023/07/16 02:30:15;;;;;;;1.00;0.70;;;;;;;23.07;100.00;96173.28;5079082;28;20224;-67
2023/07/16 02:32:41;;;;;;;0.93;0.47;;;;;;;22.73;100.00;96174.53;5079187;28;20199;-67
2023/07/16 02:35:08;;;;;;;0.50;0.50;;;;;;;22.75;100.00;96158.97;5077893;28;20218;-67
2023/07/16 02:37:35;;;;;;;1.20;0.75;;;;;;;22.36;100.00;96165.53;5077443;28;20207;-67
2023/07/16 02:40:03;;;;;;;0.55;0.45;;;;;;;22.77;100.00;96183.69;5078956;28;20234;-67
2023/07/16 02:42:30;;;;;;;2.40;0.88;;;;;;;22.59;100.00;96208.22;5078445;28;21018;-67
2023/07/16 02:44:56;;;;;;;0.68;0.47;;;;;;;22.67;100.00;96221.22;5078055;28;20216;-67
2023/07/16 02:47:23;;;;;;;1.13;0.68;;;;;;;22.61;100.00;96232.16;5077414;28;20212;-67
2023/07/16 02:49:52;;;;;;;0.70;0.63;;;;;;;22.98;100.00;96233.91;5078144;28;20227;-67
2023/07/16 02:52:18;;;;;;;0.75;0.60;;;;;;;22.79;100.00;96222.69;5077614;28;20210;-67
2023/07/16 02:54:45;;;;;;;0.88;0.60;;;;;;;22.90;100.00;96213.69;5077261;28;20269;-67
2023/07/16 02:57:13;;;;;;;0.40;0.40;;;;;;;23.19;100.00;96219.63;5074406;28;20203;-67
2023/07/16 02:59:39;;;;;;;1.27;0.47;;;;;;;22.89;100.00;96203.19;5077568;28;20224;-67
2023/07/16 03:02:06;;;;;;;1.48;0.95;;;;;;;22.83;100.00;96218.44;5077923;28;20220;-67
2023/07/16 03:04:32;;;;;;;0.85;0.60;;;;;;;22.63;100.00;96220.06;5077597;28;20667;-67
2023/07/16 03:06:59;;;;;;;0.88;0.75;;;;;;;22.39;100.00;96223.28;5076599;28;20200;-67
2023/07/16 03:09:25;;;;;;;0.73;0.47;;;;;;;22.59;100.00;96229.72;5077442;28;21253;-67
2023/07/16 03:11:52;;;;;;;0.68;0.50;;;;;;;22.56;100.00;96230.22;5077942;28;20200;-67
2023/07/16 03:14:20;;;;;;;0.88;0.68;;;;;;;22.70;100.00;96242.22;5077059;28;20762;-67
2023/07/16 03:16:46;;;;;;;0.68;0.60;;;;;;;22.65;100.00;96252.88;5077156;28;20215;-67
2023/07/16 03:19:12;;;;;;;8.10;1.40;;;;;;;22.68;100.00;96253.22;5076609;28;20223;-67
2023/07/16 03:21:39;;;;;;;3.83;1.20;;;;;;;22.70;100.00;96250.25;5077056;28;20227;-67
2023/07/16 03:24:06;;;;;;;1.55;1.02;;;;;;;22.77;100.00;96248.19;5077383;28;20203;-67
2023/07/16 03:26:32;;;;;;;1.50;0.80;;;;;;;22.75;100.00;96253.81;5077275;28;20581;-67
2023/07/16 03:28:59;;;;;;;0.70;0.65;;;;;;;22.82;100.00;96264.38;5076499;28;20220;-67
2023/07/16 03:31:27;;;;;;;2.03;0.73;;;;;;;23.11;100.00;96265.78;5077096;28;20792;-67
2023/07/16 03:33:53;;;;;;;0.80;0.50;;;;;;;22.46;100.00;96256.94;5077357;28;20219;-67
2023/07/16 03:36:20;;;;;;;1.52;0.70;;;;;;;22.66;100.00;96270.63;5076534;28;20207;-67
2023/07/16 03:38:46;;;;;;;1.73;0.70;;;;;;;22.73;100.00;96276.63;5076217;28;20224;-67
2023/07/16 03:41:13;;;;;;;1.20;0.70;;;;;;;22.71;100.00;96290.31;5077282;28;20219;-67
2023/07/16 03:43:39;;;;;;;0.70;0.60;;;;;;;22.50;100.00;96297.56;5076978;28;20200;-67
2023/07/16 03:46:08;;;;;;;4.13;0.80;;;;;;;22.15;100.00;96302.41;5076967;28;20200;-66
2023/07/16 03:48:35;;;;;;;1.17;0.70;;;;;;;22.44;100.00;96302.06;5075470;28;20208;-66
2023/07/16 03:51:02;;;;;;;0.80;0.60;;;;;;;22.33;100.00;96308.34;5076938;28;20196;-67
2023/07/16 03:53:28;;;;;;;0.60;0.60;;;;;;;22.12;100.00;96314.47;5076561;28;21104;-67
2023/07/16 03:55:55;;;;;;;1.48;0.75;;;;;;;22.08;100.00;96309.81;5076955;28;20204;-67
2023/07/16 03:58:22;;;;;;;1.10;0.70;;;;;;;22.09;100.00;96314.13;5075745;28;21030;-67
2023/07/16 04:00:49;;;;;;;1.02;0.90;;;;;;;22.32;100.00;96320.13;5076396;28;20251;-67
2023/07/16 04:03:15;;;;;;;1.95;0.90;;;;;;;22.33;100.00;96327.13;5076943;28;20210;-67
2023/07/16 04:05:43;;;;;;;1.35;0.95;;;;;;;22.46;100.00;96321.41;5076425;28;20215;-67
2023/07/16 04:08:10;;;;;;;1.92;1.30;;;;;;;22.28;100.00;96316.31;5075396;28;20200;-67
2023/07/16 04:10:36;;;;;;;1.35;0.80;;;;;;;22.21;100.00;96328.25;5076552;28;20231;-67
2023/07/16 04:13:03;;;;;;;1.58;0.85;;;;;;;22.01;100.00;96346.75;5076657;28;20192;-67
2023/07/16 04:15:29;;;;;;;1.35;0.80;;;;;;;21.84;100.00;96348.66;5076251;28;20212;-67
2023/07/16 04:17:56;;;;;;;6.90;0.98;;;;;;;21.82;100.00;96344.56;5075312;28;20215;-67
2023/07/16 04:20:22;;;;;;;1.23;0.73;;;;;;;21.96;100.00;96335.13;5076180;28;20235;-67
2023/07/16 04:22:50;;;;;;;1.52;0.80;;;;;;;22.26;100.00;96314.94;5076217;28;20207;-67
2023/07/16 04:25:18;;;;;;;1.10;0.88;;;;;;;21.91;100.00;96322.44;5075861;28;20209;-67
2023/07/16 04:27:45;;;;;;;1.85;1.08;;;;;;;22.03;100.00;96325.03;5075177;28;20249;-67
2023/07/16 04:30:12;;;;;;;1.63;0.93;;;;;;;22.03;100.00;96347.31;5076571;28;20240;-67
2023/07/16 04:32:38;;;;;;;1.25;0.55;;;;;;;21.80;100.00;96338.63;5076250;28;20199;-66
2023/07/16 04:35:06;;;;;;;1.42;0.55;;;;;;;21.99;100.00;96337.31;5076078;28;20315;-66
2023/07/16 04:37:32;;;;;;;0.90;0.57;;;;;;;21.96;100.00;96337.78;5075679;28;20215;-67
2023/07/16 04:40:00;;;;;;;1.30;0.80;;;;;;;22.27;100.00;96341.53;5076103;28;20220;-67
2023/07/16 04:42:27;;;;;;;1.02;0.70;;;;;;;22.04;100.00;96354.31;5075766;28;20226;-67
2023/07/16 04:44:53;;;;;;;4.20;1.15;;;;;;;22.11;100.00;96361.16;5076369;28;20211;-67
2023/07/16 04:47:20;;;;;;;0.73;0.68;;;;;;;22.07;100.00;96364.56;5075343;28;20207;-67
2023/07/16 04:49:46;;;;;;;1.55;1.10;;;;;;;22.24;100.00;96358.13;5076061;28;20224;-67
2023/07/16 04:52:13;;;;;;;1.58;0.90;;;;;;;22.26;100.00;96353.38;5076703;28;20196;-67
2023/07/16 04:54:40;;;;;;;1.00;0.68;;;;;;;22.11;100.00;96353.09;5076598;28;20199;-67
2023/07/16 04:57:08;;;;;;;1.83;0.95;;;;;;;22.55;100.00;96357.53;5074907;28;20208;-67
2023/07/16 04:59:35;;;;;;;0.80;0.70;;;;;;;22.40;100.00;96343.91;5076148;28;20231;-67
2023/07/16 05:02:03;;;;;;;1.25;0.68;;;;;;;22.60;100.00;96344.16;5076245;28;20227;-67
2023/07/16 05:04:29;;;;;;;0.70;0.63;;;;;;;22.28;100.00;96343.19;5075943;28;20567;-67
2023/07/16 05:06:56;;;;;;;2.65;0.77;;;;;;;22.36;100.00;96350.81;5075076;28;20204;-67
2023/07/16 05:09:22;;;;;;;1.17;0.73;;;;;;;22.33;100.00;96355.88;5075732;28;20971;-67
2023/07/16 05:11:49;;;;;;;1.45;0.75;;;;;;;22.37;100.00;96357.00;5075479;28;20664;-67
2023/07/16 05:14:17;;;;;;;1.55;0.73;;;;;;;22.41;100.00;96375.03;5075710;28;20204;-67
2023/07/16 05:16:43;;;;;;;3.35;0.80;;;;;;;22.26;100.00;96377.53;5076939;28;20204;-67
2023/07/16 05:19:10;;;;;;;2.10;0.82;;;;;;;22.03;100.00;96384.88;5078512;28;20249;-67
2023/07/16 05:21:36;;;;;;;1.23;0.73;;;;;;;22.23;100.00;96375.28;5079610;28;20228;-67
2023/07/16 05:24:03;;;;;;;1.38;0.80;;;;;;;22.32;100.00;96389.16;5079560;28;20199;-67
2023/07/16 05:26:30;;;;;;;0.75;0.63;;;;;;;22.34;100.00;96403.13;5079647;28;20204;-67
2023/07/16 05:28:56;;;;;;;1.05;0.70;;;;;;;22.33;100.00;96412.25;5078799;28;20228;-68
2023/07/16 05:31:24;;;;;;;0.60;0.50;;;;;;;22.59;100.00;96412.38;5079580;28;20281;-67
2023/07/16 05:33:50;;;;;;;1.52;0.55;;;;;;;22.23;100.00;96412.06;5079384;28;20664;-67
2023/07/16 05:36:17;;;;;;;1.27;0.63;;;;;;;22.23;100.00;96396.75;5078850;28;20203;-67
2023/07/16 05:38:44;;;;;;;1.20;0.75;;;;;;;22.05;100.00;96399.69;5077742;28;20903;-67
2023/07/16 05:41:10;;;;;;;0.75;0.70;;;;;;;22.10;100.00;96413.19;5078885;28;20224;-67
2023/07/16 05:43:37;;;;;;;0.90;0.70;;;;;;;22.18;100.00;96394.00;5079090;28;20698;-67
2023/07/16 05:46:05;;;;;;;1.15;0.60;;;;;;;22.33;100.00;96398.84;5079272;28;20832;-66
2023/07/16 05:48:33;;;;;;;2.47;1.05;;;;;;;22.54;100.00;96396.19;5077759;28;20235;-67
2023/07/16 05:50:59;;;;;;;1.38;0.85;;;;;;;22.11;100.00;96409.47;5079088;28;20199;-67
2023/07/16 05:53:26;;;;;;;1.55;0.63;;;;;;;22.06;100.00;96416.63;5079614;28;20579;-67
2023/07/16 05:55:52;;;;;;;0.82;0.50;;;;;;;21.94;100.00;96407.03;5078822;28;20211;-67
2023/07/16 05:58:19;;;;;;;1.17;0.40;;;;;;;22.08;100.00;96404.59;5078488;28;20200;-67
2023/07/16 06:00:45;;;;;;;1.55;0.93;;;;;;;22.05;100.00;96405.06;5079071;28;20224;-67
2023/07/16 06:03:12;;;;;;;3.92;0.77;;;;;;;22.15;100.00;96404.44;5078915;28;20200;-67
2023/07/16 06:05:39;;;;;;;1.33;0.70;;;;;;;22.11;100.00;96419.41;5079190;28;20207;-67
2023/07/16 06:08:07;;;;;;;2.40;0.75;;;;;;;22.11;100.00;96420.19;5078554;28;20203;-68
2023/07/16 06:10:34;;;;;;;4.93;0.60;;;;;;;21.99;100.00;96425.91;5079205;28;20318;-67
2023/07/16 06:13:01;;;;;;;2.20;0.80;;;;;;;21.75;100.00;96430.56;5078287;28;20206;-66
2023/07/16 06:15:27;;;;;;;0.93;0.60;;;;;;;21.83;100.00;96429.34;5078847;28;20608;-67
2023/07/16 06:17:54;;;;;;;2.05;0.70;;;;;;;21.85;100.00;96425.38;5078792;28;20876;-67
2023/07/16 06:20:20;;;;;;;2.65;0.90;;;;;;;21.62;100.00;96417.44;5077559;28;20224;-68
2023/07/16 06:22:48;;;;;;;0.93;0.50;;;;;;;21.90;100.00;96421.97;5077292;28;20314;-67
2023/07/16 06:25:15;;;;;;;2.38;1.00;;;;;;;21.94;100.00;96426.59;5079252;28;20204;-67
2023/07/16 06:27:42;;;;;;;1.60;0.68;;;;;;;22.01;100.00;96427.28;5078705;28;20204;-68
2023/07/16 06:30:09;;;;;;;2.58;0.55;;;;;;;21.87;100.00;96431.31;5078491;28;20227;-68
2023/07/16 06:32:35;;;;;;;1.23;0.70;;;;;;;22.02;100.00;96430.75;5079447;28;20195;-67
2023/07/16 06:35:02;;;;;;;0.85;0.60;;;;;;;22.06;100.00;96430.06;5078049;28;20588;-68
2023/07/16 06:37:28;;;;;;;3.45;0.70;;;;;;;22.00;100.00;96422.16;5078563;28;20200;-68
2023/07/16 06:39:56;;;;;;;1.00;0.73;;;;;;;22.34;100.00;96425.44;5079014;28;20220;-68
2023/07/16 06:42:23;;;;;;;2.00;0.77;;;;;;;22.07;100.00;96402.97;5076990;28;20237;-68
2023/07/16 06:44:50;;;;;;;3.55;0.88;;;;;;;22.08;100.00;96404.59;5078104;28;20200;-68
2023/07/16 06:47:16;;;;;;;0.75;0.60;;;;;;;22.24;100.00;96411.81;5077879;28;20475;-67
2023/07/16 06:49:43;;;;;;;1.13;0.70;;;;;;;22.13;100.00;96419.94;5078907;28;20219;-68
2023/07/16 06:52:19;;;;;;;0.95;0.60;;;;;;;22.33;100.00;96421.13;5077782;28;20934;-68
2023/07/16 06:54:46;;;;;;;2.38;1.08;;;;;;;22.02;100.00;96433.44;5079015;28;20195;-68
2023/07/16 06:57:13;;;;;;;1.75;0.65;;;;;;;22.24;100.00;96440.56;5077873;28;21155;-68
2023/07/16 06:59:40;;;;;;;0.90;0.60;;;;;;;21.75;100.00;96433.25;5077963;28;20220;-68
2023/07/16 07:02:07;;;;;;;0.93;0.73;;;;;;;21.73;100.00;96443.41;5078021;28;20711;-68
2023/07/16 07:04:33;;;;;;;1.05;0.70;;;;;;;21.71;100.00;96431.28;5078469;28;20292;-68
2023/07/16 07:07:00;;;;;;;1.60;0.80;;;;;;;21.99;100.00;96434.75;5077145;28;20245;-68
2023/07/16 07:09:26;;;;;;;0.90;0.80;;;;;;;21.92;100.00;96430.59;5077413;28;20234;-68
2023/07/16 07:11:53;;;;;;;7.32;0.70;;;;;;;21.88;100.00;96429.44;5077358;28;20196;-68
2023/07/16 07:14:21;;;;;;;1.35;0.80;;;;;;;22.25;100.00;96431.41;5077556;28;20722;-68
2023/07/16 07:16:47;;;;;;;0.88;0.70;;;;;;;22.00;100.00;96430.22;5077432;28;20203;-68
2023/07/16 07:19:16;;;;;;;1.88;0.90;;;;;;;22.24;100.00;96435.97;5076858;28;20219;-68
2023/07/16 07:21:42;;;;;;;1.08;0.80;;;;;;;22.17;100.00;96437.19;5074757;28;20215;-68
2023/07/16 07:24:09;;;;;;;1.65;0.60;;;;;;;22.14;100.00;96429.63;5076630;28;20690;-68
2023/07/16 07:26:35;;;;;;;0.40;0.40;;;;;;;21.84;100.00;96422.94;5077015;28;20207;-68
2023/07/16 07:29:05;;;;;;;2.95;0.90;;;;;;;22.21;100.00;96420.38;5076931;28;20228;-68
2023/07/16 07:31:33;;;;;;;1.38;0.60;;;;;;;22.39;100.00;96411.25;5076046;28;20199;-68
2023/07/16 07:33:59;;;;;;;1.10;0.77;;;;;;;22.19;100.00;96397.50;5076976;28;20208;-68
2023/07/16 07:36:26;;;;;;;0.75;0.60;;;;;;;22.32;100.00;96406.06;5077475;28;20207;-68
2023/07/16 07:38:53;;;;;;;1.55;0.65;;;;;;;22.33;100.00;96413.06;5076088;28;20230;-68
2023/07/16 07:41:19;;;;;;;2.83;0.90;;;;;;;22.44;100.00;96411.34;5073443;28;20919;-68
2023/07/16 07:43:48;;;;;;;2.10;1.10;;;;;;;22.37;100.00;96414.19;5076854;28;20202;-68
2023/07/16 07:46:14;;;;;;;1.02;0.60;;;;;;;22.28;100.00;96418.34;5076548;28;20204;-67
2023/07/16 07:48:43;;;;;;;1.88;0.75;;;;;;;22.58;100.00;96426.88;5075808;28;20203;-68
2023/07/16 07:51:09;;;;;;;2.90;1.05;;;;;;;22.20;100.00;96417.94;5076835;28;20214;-68
2023/07/16 07:53:36;;;;;;;0.90;0.80;;;;;;;22.04;100.00;96411.47;5075643;28;20200;-68
2023/07/16 07:56:02;;;;;;;1.15;0.55;;;;;;;22.09;100.00;96411.56;5076071;28;20223;-68
2023/07/16 07:58:29;;;;;;;1.20;0.80;;;;;;;22.18;100.00;96411.97;5076518;28;20230;-68
2023/07/16 08:00:55;;;;;;;0.63;0.47;;;;;;;21.95;100.00;96414.03;5076437;28;21147;-68
2023/07/16 08:03:22;;;;;;;1.38;0.90;;;;;;;22.15;100.00;96410.59;5076917;28;20731;-68
2023/07/16 08:05:50;;;;;;;1.20;0.70;;;;;;;22.23;100.00;96418.25;5076545;28;20568;-68
2023/07/16 08:08:17;;;;;;;0.60;0.60;;;;;;;21.74;100.00;96414.72;5075499;28;20204;-68
2023/07/16 08:10:45;;;;;;;1.65;0.65;;;;;;;22.23;100.00;96428.97;5075343;28;20234;-68
2023/07/16 08:13:12;;;;;;;0.93;0.55;;;;;;;22.19;100.00;96427.84;5076170;28;20679;-68
2023/07/16 08:15:38;;;;;;;1.42;0.52;;;;;;;22.32;100.00;96432.91;5076166;28;20211;-68
2023/07/16 08:18:05;;;;;;;0.70;0.50;;;;;;;22.34;100.00;96428.13;5075408;28;20200;-68
2023/07/16 08:20:32;;;;;;;0.95;0.68;;;;;;;22.49;100.00;96428.38;5075391;28;20641;-68
2023/07/16 08:23:00;;;;;;;0.85;0.60;;;;;;;22.58;100.00;96442.19;5075663;28;20216;-68
2023/07/16 08:25:26;;;;;;;1.10;0.70;;;;;;;22.69;100.00;96434.03;5075026;28;20204;-68
2023/07/16 08:27:53;;;;;;;0.93;0.70;;;;;;;22.82;100.00;96429.13;5074575;28;20234;-68
2023/07/16 08:30:19;;;;;;;1.75;0.93;;;;;;;22.89;100.00;96426.25;5075437;28;20244;-68
2023/07/16 08:32:46;;;;;;;2.15;0.90;;;;;;;23.07;100.00;96437.53;5075586;28;20211;-68
2023/07/16 08:35:16;;;;;;;0.93;0.70;;;;;;;23.24;100.00;96435.59;5075753;28;20203;-68
2023/07/16 08:37:42;;;;;;;0.77;0.60;;;;;;;22.98;100.00;96446.25;5075644;28;20675;-68
2023/07/16 08:40:12;;;;;;;0.98;0.77;;;;;;;23.40;100.00;96438.22;5076722;28;20223;-68
2023/07/16 08:42:39;;;;;;;0.60;0.50;;;;;;;23.49;100.00;96436.72;5074306;28;20259;-68
2023/07/16 08:45:07;;;;;;;0.35;0.30;;;;;;;23.62;100.00;96436.31;5074735;28;20318;-68
2023/07/16 08:47:35;;;;;;;0.57;0.50;;;;;;;23.40;100.00;96440.91;5074257;28;20204;-67
2023/07/16 08:50:02;;;;;;;0.85;0.60;;;;;;;23.43;99.75;96431.53;5074185;28;20220;-67
2023/07/16 08:52:29;;;;;;;0.65;0.40;;;;;;;22.89;100.00;96437.00;5077515;28;20272;-66
2023/07/16 08:54:56;;;;;;;1.10;0.77;;;;;;;23.20;100.00;96434.47;5079533;28;20204;-66
2023/07/16 08:57:24;;;;;;;1.33;0.90;;;;;;;23.89;99.60;96431.78;5078831;28;20218;-67
2023/07/16 08:59:52;;;;;;;1.10;0.70;;;;;;;23.97;98.43;96426.75;5078480;28;21109;-66
2023/07/16 09:02:19;;;;;;;0.43;0.43;;;;;;;23.64;91.51;96428.81;5075586;28;20226;-67
2023/07/16 09:04:47;;;;;;;4.82;0.98;;;;;;;23.75;96.57;96425.22;5077668;28;20199;-67
2023/07/16 09:07:14;;;;;;;0.57;0.50;;;;;;;23.77;98.75;96425.75;5078802;28;20215;-67
2023/07/16 09:09:40;;;;;;;1.30;0.77;;;;;;;23.66;100.00;96425.88;5079127;28;20220;-66
2023/07/16 09:12:12;;;;;;;1.20;0.60;;;;;;;23.52;100.00;96425.47;5079787;28;20560;-66
2023/07/16 09:14:41;;;;;;;1.42;0.70;;;;;;;23.25;100.00;96431.84;5078785;28;20203;-66
2023/07/16 09:17:08;;;;;;;1.17;0.70;;;;;;;23.51;100.00;96423.84;5078035;28;20208;-67
2023/07/16 09:19:34;;;;;;;1.25;0.80;;;;;;;23.92;100.00;96434.78;5078931;28;20227;-66
2023/07/16 09:22:01;;;;;;;1.55;1.08;;;;;;;23.89;100.00;96431.78;5078384;28;20199;-67
2023/07/16 09:24:27;;;;;;;1.70;0.90;;;;;;;24.21;100.00;96430.75;5077690;28;20204;-66
2023/07/16 09:26:56;;;;;;;1.17;0.65;;;;;;;24.52;100.00;96431.84;5079436;28;20204;-66
2023/07/16 09:29:25;;;;;;;1.38;0.68;;;;;;;24.31;98.66;96425.47;5078881;28;20680;-67
2023/07/16 09:31:58;;;;;;;1.13;0.70;;;;;;;25.06;98.98;96428.69;5078412;28;20226;-67
2023/07/16 09:34:28;;;;;;;1.25;0.63;;;;;;;25.17;97.89;96426.59;5080677;28;20211;-66
2023/07/16 09:36:55;;;;;;;1.27;0.95;;;;;;;24.65;92.17;96426.78;5080147;28;20199;-67
2023/07/16 09:39:23;;;;;;;0.52;0.52;;;;;;;24.39;94.76;96421.47;5079295;28;20224;-67
2023/07/16 09:41:50;;;;;;;3.33;0.65;;;;;;;24.47;94.68;96415.63;5079893;28;20265;-67
2023/07/16 09:44:18;;;;;;;0.80;0.45;;;;;;;24.17;94.08;96408.09;5078749;28;20590;-67
2023/07/16 09:46:45;;;;;;;0.93;0.50;;;;;;;24.66;92.54;96407.66;5078590;28;20207;-67
2023/07/16 09:49:16;;;;;;;0.90;0.63;;;;;;;24.98;88.21;96410.28;5078130;28;20216;-67
2023/07/16 09:51:44;;;;;;;1.05;0.63;;;;;;;25.07;92.76;96414.94;5079650;28;20215;-67
2023/07/16 09:54:14;;;;;;;2.55;0.90;;;;;;;25.47;90.96;96425.88;5077958;28;20196;-67
2023/07/16 09:56:45;;;;;;;2.33;0.82;;;;;;;25.07;92.54;96420.34;5078285;28;20676;-67
2023/07/16 09:59:15;;;;;;;1.25;0.70;;;;;;;25.00;90.71;96419.75;5078372;28;20230;-67
2023/07/16 10:01:42;;;;;;;0.80;0.63;;;;;;;24.95;87.30;96417.00;5078008;28;20208;-67
2023/07/16 10:04:15;;;;;;;0.95;0.60;;;;;;;25.49;86.03;96415.66;5077851;28;20227;-67
2023/07/16 10:06:52;;;;;;;4.43;1.40;;;;;;;25.56;86.38;96427.00;5078083;28;20279;-67
2023/07/16 10:09:39;;;;;;;1.42;0.75;;;;;;;25.49;83.57;96434.56;5077865;28;20485;-66
2023/07/16 10:12:16;;;;;;;0.88;0.60;;;;;;;25.26;86.78;96429.59;5078143;28;20200;-67
2023/07/16 10:14:44;;;;;;;0.60;0.50;;;;;;;24.66;93.95;96440.00;5078294;28;20211;-67
2023/07/16 10:17:15;;;;;;;0.68;0.50;;;;;;;25.09;95.04;96434.38;5077428;28;20212;-67
2023/07/16 10:19:57;;;;;;;1.67;0.70;;;;;;;24.90;90.47;96437.75;5077642;28;20223;-67
2023/07/16 10:22:35;;;;;;;0.50;0.50;;;;;;;25.27;94.13;96439.31;5078286;28;20207;-67
2023/07/16 10:25:02;;;;;;;0.88;0.57;;;;;;;24.91;95.09;96432.09;5078029;28;20214;-67
2023/07/16 10:27:30;;;;;;;0.68;0.60;;;;;;;25.45;97.99;96428.88;5076896;28;20295;-67
2023/07/16 10:29:56;;;;;;;1.98;0.57;;;;;;;25.40;93.19;96436.94;5077426;28;20223;-67
2023/07/16 10:32:27;;;;;;;1.20;0.77;;;;;;;25.42;90.52;96434.78;5077413;28;20208;-67
2023/07/16 10:34:56;;;;;;;1.42;0.75;;;;;;;25.55;89.28;96425.41;5075766;28;20253;-67
2023/07/16 10:37:22;;;;;;;1.30;0.68;;;;;;;25.41;84.91;96429.66;5078126;28;20200;-67
2023/07/16 10:39:50;;;;;;;1.45;0.68;;;;;;;25.75;86.72;96428.16;5078800;28;20227;-67
2023/07/16 10:42:17;;;;;;;1.60;0.82;;;;;;;26.02;86.95;96421.50;5079172;28;20210;-67
2023/07/16 10:44:44;;;;;;;2.45;0.75;;;;;;;25.95;84.80;96429.03;5077988;28;20204;-67
2023/07/16 10:47:19;;;;;;;1.00;0.60;;;;;;;26.23;84.70;96432.03;5078197;28;20207;-67
2023/07/16 10:49:46;;;;;;;1.45;0.70;;;;;;;26.17;84.12;96430.41;5078020;28;20219;-67
2023/07/16 10:52:14;;;;;;;1.17;0.80;;;;;;;26.35;85.97;96429.91;5079274;28;20200;-67
2023/07/16 10:54:41;;;;;;;1.77;0.57;;;;;;;26.25;82.57;96410.97;5079087;28;20203;-67
2023/07/16 10:57:07;;;;;;;0.90;0.60;;;;;;;26.28;78.85;96415.81;5077655;28;20195;-67
2023/07/16 10:59:34;;;;;;;1.38;0.50;;;;;;;25.93;78.56;96412.28;5078193;28;20241;-67
2023/07/16 11:02:00;;;;;;;1.00;0.73;;;;;;;26.18;79.86;96413.09;5078958;28;20578;-67
2023/07/16 11:04:27;;;;;;;1.00;0.70;;;;;;;25.85;74.61;96408.22;5079112;28;20228;-67
2023/07/16 11:06:53;;;;;;;0.52;0.40;;;;;;;26.43;77.11;96413.16;5077327;28;20213;-67
2023/07/16 11:09:21;;;;;;;0.98;0.60;;;;;;;26.65;77.04;96409.06;5077974;28;20224;-67
2023/07/16 11:11:48;;;;;;;1.70;0.60;;;;;;;27.01;76.01;96407.94;5077466;28;20210;-67
2023/07/16 11:14:14;;;;;;;1.45;0.63;;;;;;;26.49;73.48;96412.06;5075961;28;20207;-67
2023/07/16 11:16:41;;;;;;;1.85;0.95;;;;;;;26.45;69.52;96422.59;5077716;28;20242;-67
2023/07/16 11:19:08;;;;;;;0.60;0.50;;;;;;;26.17;69.95;96419.59;5076916;28;20219;-67
2023/07/16 11:21:35;;;;;;;1.40;0.55;;;;;;;26.21;70.61;96411.75;5077580;28;20216;-67
2023/07/16 11:24:09;;;;;;;0.88;0.70;;;;;;;26.57;74.50;96411.53;5077126;28;20731;-67
2023/07/16 11:26:37;;;;;;;1.08;0.50;;;;;;;26.19;73.95;96406.63;5077284;28;20200;-67
2023/07/16 11:29:14;;;;;;;0.80;0.70;;;;;;;26.34;70.22;96405.88;5076832;28;20635;-67
2023/07/16 11:31:41;;;;;;;0.60;0.52;;;;;;;26.17;70.02;96408.81;5077716;28;20723;-66